Time;durP1;ratioP1;P1;durP2;ratioP2;P2;SDS_P1;SDS_P2;PMS_P1;PMS_P2;Temp;Humidity;BMP_temperature;BMP_pressure;BME280_temperature;BME280_humidity;BME280_pressure;Samples;Min_cycle;Max_cycle;Signal;HPM_P1;HPM_P2
2021/06/01 00:01:49;;;;;;;9.90;9.05;;;9.40;62.70;;;;;;5183164;28;20057;-71
2021/06/01 00:04:21;;;;;;;10.68;9.57;;;9.40;63.50;;;;;;5189346;28;20578;-71
2021/06/01 00:06:53;;;;;;;10.30;9.40;;;9.40;64.10;;;;;;5186065;28;20030;-71
2021/06/01 00:09:25;;;;;;;9.98;9.05;;;9.30;64.00;;;;;;5185072;28;20450;-71
2021/06/01 00:11:57;;;;;;;10.02;9.10;;;9.30;64.00;;;;;;5185439;28;20140;-70
2021/06/01 00:14:29;;;;;;;9.95;8.95;;;9.30;63.20;;;;;;5186094;28;20048;-71
2021/06/01 00:17:02;;;;;;;9.77;8.77;;;9.30;63.80;;;;;;5167333;28;20038;-71
2021/06/01 00:19:34;;;;;;;10.15;9.25;;;9.00;65.70;;;;;;5184309;28;20100;-70
2021/06/01 00:22:06;;;;;;;10.57;9.50;;;8.90;66.30;;;;;;5184987;28;20050;-71
2021/06/01 00:24:37;;;;;;;10.43;9.32;;;8.90;65.30;;;;;;5185526;28;20469;-70
2021/06/01 00:27:09;;;;;;;10.07;9.18;;;9.00;65.50;;;;;;5184107;28;20129;-70
2021/06/01 00:29:41;;;;;;;10.20;9.30;;;9.00;65.70;;;;;;5187359;28;20087;-72
2021/06/01 00:32:13;;;;;;;10.07;9.18;;;9.00;65.60;;;;;;5168392;28;20041;-70
2021/06/01 00:34:45;;;;;;;10.40;9.40;;;9.00;65.50;;;;;;5185027;28;20052;-71
2021/06/01 00:37:17;;;;;;;10.60;9.70;;;9.00;66.20;;;;;;5184972;28;20112;-72
2021/06/01 00:39:49;;;;;;;10.70;9.70;;;9.00;66.10;;;;;;5185290;28;20061;-72
2021/06/01 00:42:22;;;;;;;9.70;8.90;;;9.00;65.10;;;;;;5171239;28;20121;-71
2021/06/01 00:44:54;;;;;;;10.75;9.60;;;8.90;65.60;;;;;;5190360;28;20139;-71
2021/06/01 00:47:25;;;;;;;10.18;9.05;;;8.90;65.50;;;;;;5186771;28;20041;-71
2021/06/01 00:49:57;;;;;;;10.57;9.52;;;8.90;66.00;;;;;;5188284;28;20077;-70
2021/06/01 00:52:29;;;;;;;10.15;9.00;;;8.80;66.20;;;;;;5186754;28;20143;-71
2021/06/01 00:55:04;;;;;;;10.85;8.73;;;8.80;65.50;;;;;;5187310;28;20073;-71
2021/06/01 00:57:36;;;;;;;9.60;8.70;;;8.80;65.90;;;;;;5188428;28;20069;-71
2021/06/01 01:00:22;;;;;;;9.70;8.80;;;8.80;65.50;;;;;;5187709;28;20042;-70
2021/06/01 01:02:55;;;;;;;10.38;9.38;;;8.80;66.00;;;;;;5190617;28;20034;-71
2021/06/01 01:05:34;;;;;;;9.80;8.82;;;8.80;65.90;;;;;;5171926;28;20692;-71
2021/06/01 01:08:21;;;;;;;10.23;9.02;;;8.80;64.70;;;;;;5191712;28;20515;-71
2021/06/01 01:10:55;;;;;;;11.57;9.25;;;8.90;65.40;;;;;;5191805;28;20088;-70
2021/06/01 01:13:36;;;;;;;10.50;9.50;;;8.80;65.20;;;;;;5188782;28;20069;-70
2021/06/01 01:16:09;;;;;;;9.65;8.75;;;8.80;65.90;;;;;;5186563;28;20052;-70
2021/06/01 01:18:46;;;;;;;10.50;9.40;;;8.70;65.80;;;;;;5174432;28;20056;-71
2021/06/01 01:21:49;;;;;;;11.25;9.23;;;8.70;65.80;;;;;;5189418;28;20038;-71
2021/06/01 01:24:40;;;;;;;10.25;9.32;;;8.60;66.50;;;;;;5172370;28;20069;-71
2021/06/01 01:27:25;;;;;;;9.95;9.05;;;8.60;66.50;;;;;;5187494;28;20037;-71
2021/06/01 01:30:01;;;;;;;9.82;8.93;;;8.60;66.80;;;;;;5189870;28;20076;-70
2021/06/01 01:33:01;;;;;;;10.15;9.25;;;8.60;67.50;;;;;;5185892;28;20045;-69
2021/06/01 01:35:34;;;;;;;10.18;9.18;;;8.50;66.60;;;;;;5188679;28;20034;-72
2021/06/01 01:38:07;;;;;;;10.80;9.77;;;8.50;67.10;;;;;;5189166;28;20096;-71
2021/06/01 01:40:41;;;;;;;11.13;10.00;;;8.40;67.90;;;;;;5187732;28;20119;-71
2021/06/01 01:43:16;;;;;;;10.52;9.52;;;8.40;67.10;;;;;;5188157;28;20132;-71
2021/06/01 01:45:52;;;;;;;10.60;9.60;;;8.40;68.00;;;;;;5189506;28;20075;-72
2021/06/01 01:51:16;;;;;;;10.80;9.70;;;8.40;66.80;;;;;;5185667;28;20749;-69
2021/06/01 01:53:56;;;;;;;10.70;9.65;;;8.40;67.30;;;;;;5188341;28;20119;-71
2021/06/01 01:56:31;;;;;;;;;;;8.30;66.70;;;;;;5188410;28;20694;-71
2021/06/01 01:59:11;;;;;;;10.02;9.13;;;8.30;66.40;;;;;;5187986;28;19968;-71
2021/06/01 02:01:46;;;;;;;9.63;8.73;;;8.30;67.60;;;;;;5172465;28;20037;-70
2021/06/01 02:04:21;;;;;;;10.23;9.30;;;8.20;67.70;;;;;;5193777;28;20717;-71
2021/06/01 02:06:54;;;;;;;10.98;9.05;;;8.20;67.70;;;;;;5185731;28;20049;-72
2021/06/01 02:09:26;;;;;;;10.07;9.05;;;8.20;67.40;;;;;;5184791;28;20606;-70
2021/06/01 02:11:58;;;;;;;9.43;8.63;;;8.10;67.70;;;;;;5174674;28;20441;-71
2021/06/01 02:14:30;;;;;;;9.70;8.80;;;8.10;67.50;;;;;;5186422;28;20151;-70
2021/06/01 02:17:02;;;;;;;10.45;8.93;;;8.10;67.70;;;;;;5187478;28;20104;-71
2021/06/01 02:19:34;;;;;;;10.82;9.30;;;8.10;67.60;;;;;;5190330;28;20046;-71
2021/06/01 02:22:25;;;;;;;10.45;9.35;;;8.10;68.30;;;;;;5188018;28;20132;-71
2021/06/01 02:24:56;;;;;;;;;;;8.10;67.20;;;;;;5187620;28;20100;-71
2021/06/01 02:27:39;;;;;;;10.18;9.27;;;8.10;69.20;;;;;;5187869;28;20014;-70
2021/06/01 02:30:25;;;;;;;10.00;9.00;;;8.00;69.00;;;;;;5185310;28;20073;-71
2021/06/01 02:33:00;;;;;;;10.52;9.60;;;8.00;68.30;;;;;;5187687;28;20128;-71
2021/06/01 02:35:40;;;;;;;11.07;10.10;;;8.00;69.50;;;;;;5184064;28;20485;-71
2021/06/01 02:38:12;;;;;;;11.07;9.95;;;7.90;69.40;;;;;;5170506;28;20046;-71
2021/06/01 02:40:45;;;;;;;10.20;9.25;;;7.80;68.70;;;;;;5172672;28;20108;-71
2021/06/01 02:43:19;;;;;;;9.90;9.00;;;7.80;69.10;;;;;;5166078;28;20053;-71
2021/06/01 02:45:51;;;;;;;10.68;9.68;;;7.80;69.40;;;;;;5168875;28;20576;-70
2021/06/01 02:48:25;;;;;;;10.68;9.68;;;7.70;71.00;;;;;;5166592;28;20054;-71
2021/06/01 02:51:13;;;;;;;11.32;9.40;;;7.60;70.10;;;;;;5165782;28;20054;-70
2021/06/01 02:53:52;;;;;;;10.30;9.40;;;7.70;70.50;;;;;;5167874;28;20037;-71
2021/06/01 02:56:25;;;;;;;10.23;9.38;;;7.70;70.70;;;;;;5166146;28;20042;-71
2021/06/01 02:58:58;;;;;;;10.00;9.07;;;7.70;70.20;;;;;;5165648;28;20117;-71
2021/06/01 03:01:30;;;;;;;9.68;8.68;;;7.70;70.60;;;;;;5164120;28;20061;-71
2021/06/01 03:04:07;;;;;;;10.43;9.43;;;7.70;70.30;;;;;;5165017;28;20053;-71
2021/06/01 03:06:43;;;;;;;9.57;8.68;;;7.70;70.40;;;;;;5166633;28;20038;-69
2021/06/01 03:09:15;;;;;;;9.55;8.63;;;7.60;70.30;;;;;;5166696;28;20070;-69
2021/06/01 03:11:48;;;;;;;10.90;9.15;;;7.60;70.20;;;;;;5168798;28;20073;-68
2021/06/01 03:14:21;;;;;;;9.88;8.90;;;7.60;70.50;;;;;;5167549;28;20509;-68
2021/06/01 03:16:53;;;;;;;10.00;9.10;;;7.70;70.60;;;;;;5166702;28;20065;-69
2021/06/01 03:19:25;;;;;;;9.35;8.45;;;7.70;70.20;;;;;;5166486;28;20931;-68
2021/06/01 03:21:57;;;;;;;10.07;9.07;;;7.70;68.90;;;;;;5166769;28;20422;-69
2021/06/01 03:24:28;;;;;;;10.13;8.38;;;7.70;69.20;;;;;;5165035;28;20129;-68
2021/06/01 03:27:01;;;;;;;9.90;8.70;;;7.70;69.60;;;;;;5167400;28;20078;-68
2021/06/01 03:29:32;;;;;;;9.40;8.35;;;7.60;69.90;;;;;;5168689;28;20049;-69
2021/06/01 03:32:05;;;;;;;9.98;9.00;;;7.60;70.60;;;;;;5165842;28;20053;-70
2021/06/01 03:34:38;;;;;;;9.75;8.65;;;7.50;71.30;;;;;;5167622;28;20042;-69
2021/06/01 03:37:10;;;;;;;9.80;8.90;;;7.50;71.20;;;;;;5166304;28;20042;-69
2021/06/01 03:39:42;;;;;;;9.73;8.80;;;7.50;70.50;;;;;;5172522;28;20042;-69
2021/06/01 03:42:15;;;;;;;10.07;9.10;;;7.50;70.20;;;;;;5184047;28;20056;-70
2021/06/01 03:44:47;;;;;;;10.15;9.15;;;7.50;69.90;;;;;;5176322;28;20072;-69
2021/06/01 03:47:18;;;;;;;10.52;9.43;;;7.40;71.20;;;;;;5184141;28;20141;-69
2021/06/01 03:49:50;;;;;;;10.52;9.48;;;7.40;71.30;;;;;;5185733;28;20061;-68
2021/06/01 03:52:23;;;;;;;9.43;8.50;;;7.30;71.90;;;;;;5186209;28;20072;-69
2021/06/01 03:54:54;;;;;;;10.02;8.80;;;7.30;70.30;;;;;;5187688;28;20457;-69
2021/06/01 03:57:27;;;;;;;9.80;8.90;;;7.30;70.90;;;;;;5183795;28;20038;-69
2021/06/01 03:59:59;;;;;;;10.20;8.95;;;7.30;70.60;;;;;;5186638;28;20594;-69
2021/06/01 04:02:31;;;;;;;9.95;9.05;;;7.30;72.60;;;;;;5185303;28;20033;-69
2021/06/01 04:05:04;;;;;;;10.50;9.50;;;7.20;72.70;;;;;;5185938;28;20095;-69
2021/06/01 04:07:36;;;;;;;10.30;9.23;;;7.30;72.00;;;;;;5184868;28;20073;-68
2021/06/01 04:10:08;;;;;;;10.40;9.40;;;7.20;70.80;;;;;;5186273;28;20138;-69
2021/06/01 04:12:40;;;;;;;10.23;9.32;;;7.20;71.30;;;;;;5183719;28;20495;-69
2021/06/01 04:15:13;;;;;;;10.73;9.43;;;7.20;71.70;;;;;;5185874;28;20065;-69
2021/06/01 04:17:44;;;;;;;9.43;8.52;;;7.20;71.60;;;;;;5188857;28;20136;-70
2021/06/01 04:20:17;;;;;;;9.40;8.50;;;7.20;72.30;;;;;;5188761;28;20116;-69
2021/06/01 04:22:49;;;;;;;9.95;9.05;;;7.20;72.20;;;;;;5187897;28;20749;-69
2021/06/01 04:25:22;;;;;;;9.68;8.68;;;7.30;71.70;;;;;;5189052;28;20422;-70
2021/06/01 04:27:54;;;;;;;11.00;8.90;;;7.30;72.20;;;;;;5190183;28;20117;-70
2021/06/01 04:30:26;;;;;;;8.55;7.75;;;7.40;72.10;;;;;;5188649;28;20046;-69
2021/06/01 04:32:58;;;;;;;8.55;7.28;;;7.40;72.60;;;;;;5191035;28;20455;-68
2021/06/01 04:35:30;;;;;;;8.18;7.38;;;7.50;72.40;;;;;;5189170;28;20046;-68
2021/06/01 04:38:02;;;;;;;8.50;7.60;;;7.60;71.60;;;;;;5187273;28;20073;-69
2021/06/01 04:40:34;;;;;;;9.40;7.50;;;7.80;71.60;;;;;;5186683;28;20072;-69
2021/06/01 04:43:06;;;;;;;8.40;7.35;;;8.00;71.20;;;;;;5187617;28;20042;-70
2021/06/01 04:45:38;;;;;;;9.55;7.85;;;8.10;71.50;;;;;;5187558;28;20721;-69
2021/06/01 04:48:10;;;;;;;8.70;7.68;;;8.20;72.50;;;;;;5192593;28;20124;-69
2021/06/01 04:50:42;;;;;;;9.57;7.60;;;8.40;72.30;;;;;;5189103;28;20129;-69
2021/06/01 04:53:14;;;;;;;8.70;7.90;;;8.50;71.90;;;;;;5173082;28;20100;-69
2021/06/01 04:55:46;;;;;;;9.10;7.57;;;8.70;71.50;;;;;;5187603;28;20146;-69
2021/06/01 04:58:18;;;;;;;8.68;7.78;;;8.80;71.50;;;;;;5189809;28;20618;-69
2021/06/01 05:00:50;;;;;;;10.10;7.72;;;9.00;71.60;;;;;;5188422;28;20049;-69
2021/06/01 05:03:22;;;;;;;8.73;7.93;;;9.10;70.80;;;;;;5175335;28;20045;-70
2021/06/01 05:05:54;;;;;;;8.23;7.40;;;9.20;70.60;;;;;;5186423;28;20080;-69
2021/06/01 05:08:26;;;;;;;11.40;7.95;;;9.40;70.50;;;;;;5178471;28;20378;-69
2021/06/01 05:10:58;;;;;;;11.35;7.50;;;9.50;70.80;;;;;;5185836;28;20152;-69
2021/06/01 05:13:30;;;;;;;8.73;7.82;;;9.70;70.00;;;;;;5186136;28;20038;-68
2021/06/01 05:16:04;;;;;;;8.20;7.40;;;9.80;70.60;;;;;;5187543;28;20210;-69
2021/06/01 05:18:36;;;;;;;13.55;7.95;;;9.90;70.40;;;;;;5189071;28;20386;-68
2021/06/01 05:21:09;;;;;;;10.45;7.47;;;10.10;70.70;;;;;;5184667;28;20068;-69
2021/06/01 05:23:41;;;;;;;9.25;8.07;;;10.20;69.40;;;;;;5185584;28;20038;-69
2021/06/01 05:26:13;;;;;;;8.60;7.70;;;10.40;69.00;;;;;;5186776;28;20132;-70
2021/06/01 05:28:45;;;;;;;9.75;7.50;;;10.50;68.70;;;;;;5186729;28;20073;-69
2021/06/01 05:31:21;;;;;;;8.77;7.53;;;10.70;67.90;;;;;;5185101;28;20057;-69
2021/06/01 05:33:58;;;;;;;8.60;7.63;;;10.70;68.50;;;;;;5186496;28;20583;-68
2021/06/01 05:36:30;;;;;;;10.73;7.63;;;10.90;69.40;;;;;;5174501;28;20045;-68
2021/06/01 05:39:05;;;;;;;9.20;7.82;;;11.10;68.10;;;;;;5184158;28;20072;-69
2021/06/01 05:41:37;;;;;;;9.77;7.60;;;11.20;69.00;;;;;;5169596;28;20057;-69
2021/06/01 05:44:10;;;;;;;9.20;8.30;;;11.40;66.50;;;;;;5176599;28;20052;-70
2021/06/01 05:46:42;;;;;;;8.93;8.00;;;11.50;65.20;;;;;;5185799;28;20506;-68
2021/06/01 05:49:14;;;;;;;9.48;7.80;;;11.60;64.80;;;;;;5190778;28;20037;-68
2021/06/01 05:51:45;;;;;;;10.55;8.98;;;11.80;67.40;;;;;;5182171;28;20073;-68
2021/06/01 05:54:17;;;;;;;11.82;8.52;;;11.90;68.50;;;;;;5186268;28;20810;-68
2021/06/01 05:56:50;;;;;;;12.00;8.65;;;12.10;66.10;;;;;;5185717;28;20088;-69
2021/06/01 05:59:22;;;;;;;9.73;8.50;;;12.20;67.30;;;;;;5191317;28;20598;-69
2021/06/01 06:01:54;;;;;;;9.48;7.93;;;12.40;65.60;;;;;;5189668;28;20169;-69
2021/06/01 06:04:26;;;;;;;9.05;8.15;;;12.50;66.50;;;;;;5192126;28;20057;-69
2021/06/01 06:06:58;;;;;;;9.50;8.45;;;12.60;66.90;;;;;;5190734;28;20571;-69
2021/06/01 06:09:30;;;;;;;10.75;8.65;;;12.70;66.90;;;;;;5191399;28;21068;-69
2021/06/01 06:12:02;;;;;;;10.95;9.02;;;12.80;65.30;;;;;;5187062;28;20057;-68
2021/06/01 06:14:34;;;;;;;9.27;8.38;;;13.00;64.40;;;;;;5193789;28;20034;-69
2021/06/01 06:17:23;;;;;;;10.85;8.57;;;13.10;65.80;;;;;;5186876;28;20052;-69
2021/06/01 06:19:57;;;;;;;10.38;8.60;;;13.20;67.20;;;;;;5185964;28;20087;-69
2021/06/01 06:22:29;;;;;;;10.32;9.15;;;13.40;64.80;;;;;;5185365;28;20077;-69
2021/06/01 06:25:01;;;;;;;10.05;9.07;;;13.50;65.40;;;;;;5166635;28;20165;-68
2021/06/01 06:27:33;;;;;;;10.60;9.05;;;13.60;63.50;;;;;;5186779;28;20060;-70
2021/06/01 06:30:10;;;;;;;9.63;8.73;;;13.70;62.80;;;;;;5187997;28;20096;-68
2021/06/01 06:32:42;;;;;;;13.30;9.50;;;13.80;61.60;;;;;;5168971;28;20433;-69
2021/06/01 06:35:15;;;;;;;11.48;9.00;;;13.90;62.10;;;;;;5184731;28;20538;-68
2021/06/01 06:37:47;;;;;;;10.88;9.43;;;14.10;61.00;;;;;;5183472;28;20583;-68
2021/06/01 06:40:19;;;;;;;9.65;8.65;;;14.10;60.00;;;;;;5184005;28;20543;-68
2021/06/01 06:42:51;;;;;;;11.48;9.18;;;14.30;63.40;;;;;;5171322;28;20041;-68
2021/06/01 06:45:25;;;;;;;9.75;8.75;;;14.40;64.20;;;;;;5189804;28;20046;-68
2021/06/01 06:48:06;;;;;;;10.25;9.10;;;14.50;61.80;;;;;;5169583;28;20061;-69
2021/06/01 06:50:38;;;;;;;10.55;9.07;;;14.60;58.50;;;;;;5185885;28;20193;-68
2021/06/01 06:53:10;;;;;;;14.20;9.95;;;14.80;59.00;;;;;;5185697;28;20049;-68
2021/06/01 06:55:42;;;;;;;11.15;9.77;;;14.90;57.20;;;;;;5185885;28;20041;-69
2021/06/01 06:58:14;;;;;;;9.45;8.38;;;15.00;58.30;;;;;;5186072;28;20049;-68
2021/06/01 07:00:46;;;;;;;9.77;8.70;;;15.10;54.90;;;;;;5183864;28;20050;-69
2021/06/01 07:03:18;;;;;;;9.50;8.60;;;15.20;54.40;;;;;;5185265;28;20068;-69
2021/06/01 07:05:50;;;;;;;9.45;8.65;;;15.30;54.80;;;;;;5186417;28;20097;-69
2021/06/01 07:08:22;;;;;;;9.35;8.40;;;15.30;53.80;;;;;;5185697;28;20093;-70
2021/06/01 07:10:53;;;;;;;10.30;9.20;;;15.40;55.30;;;;;;5182146;28;20161;-69
2021/06/01 07:13:40;;;;;;;10.57;9.57;;;15.50;55.80;;;;;;5181780;28;20069;-70
2021/06/01 07:16:12;;;;;;;10.65;9.55;;;15.60;54.60;;;;;;5187608;28;20416;-70
2021/06/01 07:18:46;;;;;;;10.38;9.38;;;15.70;56.20;;;;;;5187445;28;20121;-68
2021/06/01 07:21:18;;;;;;;10.35;9.45;;;15.80;55.10;;;;;;5174035;28;20050;-69
2021/06/01 07:23:50;;;;;;;10.75;9.80;;;15.90;53.80;;;;;;5186901;28;20100;-69
2021/06/01 07:26:22;;;;;;;10.85;9.52;;;16.00;55.60;;;;;;5183276;28;20049;-69
2021/06/01 07:28:54;;;;;;;11.15;10.13;;;16.10;54.00;;;;;;5185648;28;20678;-69
2021/06/01 07:31:25;;;;;;;11.32;10.07;;;16.20;54.40;;;;;;5181679;28;20045;-70
2021/06/01 07:33:57;;;;;;;10.90;9.90;;;16.40;55.70;;;;;;5185209;28;20053;-69
2021/06/01 07:36:30;;;;;;;10.20;9.35;;;16.50;55.30;;;;;;5186954;28;20045;-69
2021/06/01 07:39:03;;;;;;;9.70;8.90;;;16.50;54.60;;;;;;5187584;28;20127;-69
2021/06/01 07:41:35;;;;;;;10.05;9.15;;;16.60;51.10;;;;;;5183329;28;20092;-69
2021/06/01 07:44:07;;;;;;;9.95;9.07;;;16.80;55.00;;;;;;5184585;28;20115;-68
2021/06/01 07:46:39;;;;;;;10.00;9.10;;;16.90;50.80;;;;;;5188955;28;20065;-69
2021/06/01 07:49:11;;;;;;;11.55;9.70;;;17.00;54.30;;;;;;5172528;28;20056;-69
2021/06/01 07:51:43;;;;;;;10.55;9.48;;;17.10;52.90;;;;;;5189940;28;20071;-69
2021/06/01 07:54:15;;;;;;;10.55;9.60;;;17.20;53.10;;;;;;5190880;28;20068;-69
2021/06/01 07:56:47;;;;;;;12.50;10.02;;;17.30;50.90;;;;;;5186173;28;20132;-69
2021/06/01 07:59:19;;;;;;;10.48;9.57;;;17.40;51.90;;;;;;5189277;28;20052;-69
2021/06/01 08:01:51;;;;;;;12.38;9.70;;;17.50;50.00;;;;;;5187307;28;20054;-69
2021/06/01 08:04:23;;;;;;;9.88;8.88;;;17.50;52.60;;;;;;5187542;28;20056;-69
2021/06/01 08:07:00;;;;;;;10.82;9.82;;;17.60;52.10;;;;;;5174069;28;20116;-69
2021/06/01 08:09:32;;;;;;;10.77;9.77;;;17.70;53.40;;;;;;5186708;28;20124;-69
2021/06/01 08:12:05;;;;;;;10.68;9.68;;;17.90;49.90;;;;;;5186593;28;20088;-69
2021/06/01 08:14:37;;;;;;;10.60;9.70;;;18.00;49.60;;;;;;5174438;28;20054;-69
2021/06/01 08:17:10;;;;;;;11.15;10.15;;;18.00;48.50;;;;;;5189791;28;20133;-69
2021/06/01 08:19:44;;;;;;;11.05;10.00;;;18.10;47.90;;;;;;5189292;28;20052;-69
2021/06/01 08:24:54;;;;;;;11.50;10.32;;;18.20;47.90;;;;;;5187716;28;20077;-70
2021/06/01 08:27:28;;;;;;;11.00;9.85;;;18.20;48.30;;;;;;5186433;28;20069;-70
2021/06/01 08:30:00;;;;;;;11.07;9.98;;;18.30;50.30;;;;;;5186954;28;20493;-69
2021/06/01 08:32:32;;;;;;;11.13;10.02;;;18.40;48.50;;;;;;5187701;28;20152;-71
2021/06/01 08:35:05;;;;;;;11.68;10.38;;;18.50;50.30;;;;;;5189502;28;20045;-70
2021/06/01 08:37:39;;;;;;;11.52;10.38;;;18.70;48.30;;;;;;5186588;28;20073;-70
2021/06/01 08:40:12;;;;;;;17.50;10.60;;;18.70;49.90;;;;;;5189903;28;20120;-69
2021/06/01 08:42:44;;;;;;;12.20;11.00;;;18.80;48.30;;;;;;5187818;28;20493;-70
2021/06/01 08:45:17;;;;;;;14.25;11.10;;;18.80;48.70;;;;;;5176488;28;20053;-70
2021/06/01 08:47:49;;;;;;;12.35;11.10;;;18.90;47.90;;;;;;5192055;28;20045;-71
2021/06/01 08:50:22;;;;;;;11.57;10.38;;;18.90;46.90;;;;;;5176778;28;20049;-71
2021/06/01 08:52:53;;;;;;;11.88;10.63;;;19.00;46.90;;;;;;5173471;28;20045;-70
2021/06/01 08:55:26;;;;;;;12.20;11.07;;;19.00;47.10;;;;;;5187075;28;24885;-69
2021/06/01 08:57:57;;;;;;;11.80;10.70;;;19.10;46.80;;;;;;5190938;28;20069;-71
2021/06/01 09:00:29;;;;;;;11.80;10.73;;;19.10;45.20;;;;;;5188228;28;20140;-70
2021/06/01 09:03:21;;;;;;;11.57;10.55;;;19.20;46.90;;;;;;5190110;28;20049;-69
2021/06/01 09:06:21;;;;;;;11.65;10.65;;;19.30;47.30;;;;;;5187376;28;20489;-70
2021/06/01 09:12:53;;;;;;;11.57;10.38;;;19.60;46.30;;;;;;5184707;28;20666;-70
2021/06/01 09:23:14;;;;;;;11.27;10.18;;;19.90;40.40;;;;;;5185852;28;20042;-70
2021/06/01 09:25:49;;;;;;;11.40;10.40;;;19.90;44.80;;;;;;5186774;28;20109;-70
2021/06/01 09:28:22;;;;;;;12.40;10.65;;;20.00;43.90;;;;;;5175246;28;20124;-71
2021/06/01 09:30:56;;;;;;;11.93;10.82;;;20.00;44.90;;;;;;5187138;28;20053;-70
2021/06/01 09:33:30;;;;;;;11.63;10.65;;;20.00;44.50;;;;;;5182300;28;20050;-71
2021/06/01 09:36:05;;;;;;;11.60;10.60;;;20.10;44.40;;;;;;5184024;28;20049;-70
2021/06/01 09:38:43;;;;;;;11.13;10.20;;;20.20;46.10;;;;;;5187148;28;20081;-70
2021/06/01 09:41:26;;;;;;;11.65;10.65;;;20.30;40.50;;;;;;5184786;28;20045;-70
2021/06/01 09:44:04;;;;;;;11.35;10.40;;;20.30;45.40;;;;;;5186822;28;20103;-70
2021/06/01 09:46:44;;;;;;;14.18;9.93;;;20.40;41.60;;;;;;5188578;28;20103;-71
2021/06/01 09:49:16;;;;;;;11.30;10.30;;;20.50;43.30;;;;;;5187964;28;20038;-70
2021/06/01 09:52:04;;;;;;;11.20;10.30;;;20.60;43.00;;;;;;5184443;28;20041;-70
2021/06/01 09:54:45;;;;;;;11.63;10.52;;;20.70;45.20;;;;;;5188927;28;20048;-70
2021/06/01 09:57:25;;;;;;;11.85;10.65;;;20.80;45.00;;;;;;5188083;28;20731;-71
2021/06/01 10:00:16;;;;;;;11.77;10.77;;;21.00;44.40;;;;;;5184051;28;20124;-70
2021/06/01 10:03:23;;;;;;;12.60;11.50;;;21.00;40.30;;;;;;5188138;28;21902;-70
2021/06/01 10:05:56;;;;;;;11.55;10.55;;;21.00;38.50;;;;;;5183298;28;20136;-71
2021/06/01 10:08:29;;;;;;;11.70;10.70;;;21.00;43.00;;;;;;5186244;28;20125;-70
2021/06/01 10:11:04;;;;;;;13.65;12.45;;;21.10;39.20;;;;;;5184675;28;20061;-70
2021/06/01 10:13:38;;;;;;;12.02;10.93;;;21.20;42.20;;;;;;5185783;28;20076;-71
2021/06/01 10:16:14;;;;;;;12.15;11.05;;;21.20;39.40;;;;;;5172731;28;20054;-70
2021/06/01 10:18:46;;;;;;;11.93;10.90;;;21.40;42.80;;;;;;5179492;28;20041;-70
2021/06/01 10:21:19;;;;;;;12.15;11.15;;;21.40;40.50;;;;;;5182176;28;20046;-71
2021/06/01 10:23:53;;;;;;;14.25;13.05;;;21.50;42.40;;;;;;5189691;28;20043;-70
2021/06/01 10:26:28;;;;;;;12.50;11.23;;;21.60;41.00;;;;;;5186995;28;20201;-70
2021/06/01 10:29:00;;;;;;;12.35;11.15;;;21.60;37.90;;;;;;5185029;28;20107;-71
2021/06/01 10:31:46;;;;;;;12.55;11.25;;;21.70;41.20;;;;;;5185528;28;20049;-71
2021/06/01 10:34:20;;;;;;;12.05;10.95;;;21.80;40.60;;;;;;5186024;28;20107;-71
2021/06/01 10:50:43;;;;;;;11.88;10.95;;;22.30;39.50;;;;;;5186519;28;20641;-70
2021/06/01 10:53:18;;;;;;;11.82;10.82;;;22.30;36.70;;;;;;5184827;28;20041;-70
2021/06/01 10:55:50;;;;;;;12.13;11.07;;;22.40;41.70;;;;;;5186667;28;20152;-70
2021/06/01 10:58:27;;;;;;;12.05;10.93;;;22.50;38.60;;;;;;5188694;28;20041;-70
2021/06/01 11:04:15;;;;;;;11.98;11.07;;;22.60;38.40;;;;;;5186018;28;20335;-71
2021/06/01 11:06:52;;;;;;;12.65;11.32;;;22.80;40.30;;;;;;5186716;28;20069;-70
2021/06/01 11:09:44;;;;;;;12.88;11.75;;;22.80;38.10;;;;;;5182498;28;20073;-70
2021/06/01 11:12:18;;;;;;;12.75;11.57;;;22.80;39.80;;;;;;5184696;28;20074;-71
2021/06/01 11:14:56;;;;;;;12.07;11.18;;;22.90;39.50;;;;;;5187451;28;20637;-70
2021/06/01 11:17:33;;;;;;;12.73;11.68;;;23.00;42.00;;;;;;5181905;28;20111;-71
2021/06/01 11:20:34;;;;;;;13.85;11.35;;;23.20;39.80;;;;;;5188678;28;20187;-69
2021/06/01 11:34:25;;;;;;;13.43;12.10;;;23.50;39.10;;;;;;5185078;28;20045;-70
2021/06/01 11:36:57;;;;;;;12.93;11.82;;;23.50;39.00;;;;;;5184176;28;20126;-70
2021/06/01 11:45:12;;;;;;;17.88;15.98;;;23.80;37.80;;;;;;5183011;28;20128;-70
2021/06/01 11:51:11;;;;;;;16.88;15.10;;;23.80;38.60;;;;;;5183534;28;20458;-70
2021/06/01 11:54:14;;;;;;;13.10;12.00;;;23.90;36.10;;;;;;5185766;28;20103;-70
2021/06/01 12:03:01;;;;;;;12.68;11.63;;;24.20;37.60;;;;;;5187380;28;20193;-70
2021/06/01 12:11:20;;;;;;;12.68;11.57;;;24.20;35.00;;;;;;5188834;28;20581;-69
2021/06/01 12:14:12;;;;;;;13.15;12.00;;;24.30;38.40;;;;;;5172503;28;20057;-69
2021/06/01 12:19:36;;;;;;;12.88;11.77;;;24.40;33.30;;;;;;5186531;28;20038;-69
2021/06/01 12:22:08;;;;;;;13.82;12.60;;;24.50;35.90;;;;;;5182710;28;20074;-72
2021/06/01 12:24:42;;;;;;;13.80;12.70;;;24.50;35.70;;;;;;5168388;28;20124;-71
2021/06/01 12:27:40;;;;;;;14.45;13.15;;;24.70;32.70;;;;;;5187091;28;20049;-71
2021/06/01 12:33:09;;;;;;;12.93;11.80;;;24.70;36.30;;;;;;5185535;28;20041;-72
2021/06/01 12:36:42;;;;;;;13.48;12.25;;;24.90;33.90;;;;;;5185106;28;20111;-72
2021/06/01 12:42:03;;;;;;;13.98;12.60;;;25.00;33.70;;;;;;5138499;28;20066;-71
2021/06/01 12:44:38;;;;;;;13.55;12.45;;;25.10;34.10;;;;;;5173633;28;20122;-70
2021/06/01 13:05:21;;;;;;;13.82;12.73;;;25.10;31.60;;;;;;5195047;28;20050;-73
2021/06/01 13:08:08;;;;;;;14.32;13.02;;;25.30;30.00;;;;;;5183756;28;20081;-72
2021/06/01 13:22:36;;;;;;;14.85;13.57;;;25.50;30.80;;;;;;5181598;28;20065;-74
2021/06/01 13:31:36;;;;;;;14.35;13.25;;;25.70;31.70;;;;;;5187698;28;20111;-73
2021/06/01 13:40:09;;;;;;;16.35;15.13;;;25.90;32.30;;;;;;5186904;28;20111;-71
2021/06/01 13:56:45;;;;;;;16.35;15.15;;;26.30;28.40;;;;;;5188729;28;20046;-72
2021/06/01 13:59:32;;;;;;;17.35;15.23;;;26.30;30.70;;;;;;5188708;28;20099;-72
2021/06/01 14:19:32;;;;;;;16.52;15.32;;;26.90;29.90;;;;;;5186940;28;20056;-74
2021/06/01 14:30:40;;;;;;;16.55;15.35;;;27.30;27.50;;;;;;5188216;28;20119;-72
2021/06/01 15:22:37;;;;;;;16.67;15.18;;;28.50;30.20;;;;;;5159356;28;20184;-72
2021/06/01 15:32:23;;;;;;;17.35;16.05;;;29.40;29.00;;;;;;5164040;28;20077;-71
2021/06/01 15:49:15;;;;;;;18.10;16.73;;;30.60;27.60;;;;;;5187041;28;20378;-73
2021/06/01 16:23:26;;;;;;;19.98;18.40;;;32.90;24.20;;;;;;5189686;28;20087;-73
2021/06/01 16:32:00;;;;;;;20.73;19.08;;;33.70;23.60;;;;;;5167041;28;20161;-74
2021/06/01 17:03:18;;;;;;;19.45;18.05;;;34.40;22.60;;;;;;5189394;28;20041;-75
2021/06/01 17:05:54;;;;;;;19.30;17.67;;;33.40;22.60;;;;;;5189036;28;20045;-75
2021/06/01 17:11:23;;;;;;;19.20;17.55;;;31.50;24.50;;;;;;5188635;28;20116;-76
2021/06/01 17:13:57;;;;;;;19.02;17.52;;;30.70;23.80;;;;;;5175178;28;20069;-76
2021/06/01 17:19:45;;;;;;;18.30;16.80;;;29.30;25.80;;;;;;5188501;28;20041;-75
2021/06/01 17:31:14;;;;;;;17.48;15.75;;;27.40;27.30;;;;;;5187397;28;20662;-74
2021/06/01 17:36:37;;;;;;;16.58;15.13;;;26.70;27.90;;;;;;5187863;28;20065;-75
2021/06/01 17:39:08;;;;;;;16.73;15.52;;;26.30;29.50;;;;;;5188221;28;20453;-74
2021/06/01 17:41:41;;;;;;;16.38;15.10;;;26.00;29.50;;;;;;5187058;28;20144;-74
2021/06/01 17:44:13;;;;;;;16.65;15.30;;;25.70;29.10;;;;;;5188543;28;20041;-74
2021/06/01 17:46:46;;;;;;;15.93;14.73;;;25.40;30.00;;;;;;5191483;28;20045;-74
2021/06/01 17:49:24;;;;;;;15.95;14.68;;;25.10;30.50;;;;;;5188088;28;20398;-73
2021/06/01 17:51:58;;;;;;;15.73;14.35;;;24.90;29.40;;;;;;5186804;28;20309;-76
2021/06/01 17:54:33;;;;;;;15.60;14.40;;;24.60;30.20;;;;;;5188405;28;20042;-74
2021/06/01 17:57:05;;;;;;;15.23;14.02;;;24.20;30.20;;;;;;5186796;28;20038;-75
2021/06/01 17:59:38;;;;;;;15.43;14.13;;;23.90;31.80;;;;;;5186148;28;20567;-73
2021/06/01 18:02:12;;;;;;;14.98;13.75;;;23.60;31.70;;;;;;5188006;28;20465;-74
2021/06/01 18:04:46;;;;;;;14.52;13.43;;;23.20;31.70;;;;;;5184548;28;20038;-73
2021/06/01 18:07:42;;;;;;;14.77;13.57;;;23.10;31.20;;;;;;5185678;28;20516;-74
2021/06/01 19:29:29;;;;;;;13.13;12.13;;;18.10;46.10;;;;;;5188919;28;21481;-73
2021/06/01 19:52:18;;;;;;;13.98;11.13;;;16.90;49.30;;;;;;5192051;28;20060;-72
2021/06/01 19:54:52;;;;;;;13.43;10.95;;;16.80;49.80;;;;;;5193542;28;20519;-73
2021/06/01 19:57:26;;;;;;;11.55;10.55;;;16.70;50.20;;;;;;5192830;28;20069;-72
2021/06/01 19:59:58;;;;;;;11.90;10.80;;;16.50;50.70;;;;;;5194965;28;20038;-72
2021/06/01 20:02:31;;;;;;;12.07;11.18;;;16.40;50.80;;;;;;5191707;28;20060;-72
2021/06/01 20:05:08;;;;;;;12.20;11.20;;;16.30;51.30;;;;;;5196741;28;20045;-73
2021/06/01 20:07:40;;;;;;;11.95;10.95;;;16.20;51.60;;;;;;5192932;28;20046;-72
2021/06/01 20:10:14;;;;;;;11.82;10.73;;;16.10;51.70;;;;;;5181232;28;20150;-72
2021/06/01 20:12:46;;;;;;;11.48;10.48;;;16.10;51.90;;;;;;5194646;28;20642;-72